createdAt,value
2023-04-28T00:00:36.385Z,32.5
2023-04-28T00:05:43.390Z,32.5
2023-04-28T00:10:50.409Z,33
2023-04-28T00:15:57.400Z,33
2023-04-28T00:21:04.397Z,33
2023-04-28T00:26:11.412Z,33
2023-04-28T00:31:18.416Z,33
2023-04-28T00:36:25.432Z,33
2023-04-28T00:41:32.430Z,33
2023-04-28T00:46:39.425Z,33
2023-04-28T00:51:46.429Z,33
2023-04-28T00:56:53.440Z,33
2023-04-28T01:07:08.284Z,33
2023-04-28T01:12:16.130Z,33
2023-04-28T01:17:23.948Z,33
2023-04-28T01:22:31.773Z,33
2023-04-28T01:27:39.599Z,33
2023-04-28T01:32:47.457Z,33
2023-04-28T01:37:55.259Z,33
2023-04-28T01:43:03.076Z,33.5
2023-04-28T01:53:18.801Z,33.5
2023-04-28T01:58:26.578Z,33.5
2023-04-28T02:03:34.394Z,33.5
2023-04-28T02:08:42.212Z,33.5
2023-04-28T02:13:50.044Z,33.5
2023-04-28T02:18:57.894Z,33.5
2023-04-28T02:24:05.691Z,33.5
2023-04-28T02:29:13.532Z,33.5
2023-04-28T02:34:21.357Z,33.5
2023-04-28T02:39:29.201Z,33.5
2023-04-28T02:44:37.020Z,33.5
2023-04-28T02:49:44.837Z,33.5
2023-04-28T02:54:52.676Z,33.5
2023-04-28T03:00:00.494Z,33.5
2023-04-28T03:05:08.346Z,33.5
2023-04-28T03:10:16.151Z,33.5
2023-04-28T03:20:31.812Z,33.5
2023-04-28T03:25:39.642Z,33.5
2023-04-28T03:30:47.465Z,33.5
2023-04-28T03:35:55.285Z,33.5
2023-04-28T03:41:03.132Z,34
2023-04-28T03:46:10.955Z,34
2023-04-28T03:51:18.780Z,34
2023-04-28T03:56:26.604Z,34
2023-04-28T04:01:34.429Z,34
2023-04-28T04:06:42.265Z,34
2023-04-28T04:11:50.090Z,34
2023-04-28T04:16:56.499Z,34
2023-04-28T04:22:02.572Z,34
2023-04-28T04:27:08.665Z,34
2023-04-28T04:32:14.746Z,34
2023-04-28T04:37:19.864Z,35
2023-04-28T04:42:25.957Z,35
2023-04-28T04:47:32.029Z,35
2023-04-28T04:52:38.126Z,35
2023-04-28T04:57:44.205Z,35
2023-04-28T05:02:50.303Z,35
2023-04-28T05:07:56.411Z,35
2023-04-28T05:13:02.484Z,35
2023-04-28T05:18:08.562Z,34.5
2023-04-28T05:23:14.671Z,34.5
2023-04-28T05:28:20.755Z,34.5
2023-04-28T05:33:26.837Z,34.5
2023-04-28T05:38:32.928Z,34.5
2023-04-28T05:43:39.054Z,34
2023-04-28T05:48:45.121Z,34
2023-04-28T05:53:51.192Z,34
2023-04-28T05:58:57.280Z,34
2023-04-28T06:04:03.372Z,34
2023-04-28T06:09:09.463Z,34
2023-04-28T06:14:15.548Z,34
2023-04-28T06:19:21.639Z,34
2023-04-28T06:24:27.728Z,33.5
2023-04-28T06:29:33.819Z,33.5
2023-04-28T06:34:39.910Z,34
2023-04-28T06:39:46.019Z,33.5
2023-04-28T06:44:52.088Z,33.5
2023-04-28T06:49:58.178Z,33.5
2023-04-28T06:55:04.335Z,33.5
2023-04-28T07:00:10.343Z,33.5
2023-04-28T07:05:16.443Z,33.5
2023-04-28T07:10:22.541Z,33.5
2023-04-28T07:15:28.649Z,33.5
2023-04-28T07:20:34.718Z,33.5
2023-04-28T07:25:40.809Z,33
2023-04-28T07:30:46.902Z,33
2023-04-28T07:35:53.040Z,33.5
2023-04-28T07:40:59.149Z,33
2023-04-28T07:46:05.400Z,33
2023-04-28T07:51:11.375Z,33
2023-04-28T07:56:17.541Z,33
2023-04-28T08:01:23.706Z,33
2023-04-28T08:06:29.826Z,33
2023-04-28T08:11:35.974Z,33
2023-04-28T08:16:42.129Z,33
2023-04-28T08:21:48.299Z,33
2023-04-28T08:26:54.436Z,33
2023-04-28T08:32:00.580Z,33
2023-04-28T08:37:06.739Z,33
2023-04-28T08:42:13.016Z,33
2023-04-28T08:47:19.056Z,33
2023-04-28T08:52:25.305Z,33
2023-04-28T08:57:31.724Z,33
2023-04-28T09:02:37.978Z,33
2023-04-28T09:07:44.255Z,33
2023-04-28T09:12:50.437Z,33
2023-04-28T09:17:56.659Z,33
2023-04-28T09:23:02.966Z,32.5
2023-04-28T09:28:09.143Z,33
2023-04-28T09:33:15.424Z,32.5
2023-04-28T09:38:21.747Z,33
2023-04-28T09:43:28.042Z,33.5
2023-04-28T09:48:34.231Z,32.5
2023-04-28T09:53:40.477Z,32.5
2023-04-28T09:58:46.967Z,33
2023-04-28T10:03:53.505Z,32.5
2023-04-28T10:08:59.897Z,33
2023-04-28T10:14:06.372Z,33
2023-04-28T10:19:12.845Z,33
2023-04-28T10:24:19.299Z,34
2023-04-28T10:29:25.785Z,33.5
2023-04-28T10:34:32.249Z,33.5
2023-04-28T10:39:38.708Z,33.5
2023-04-28T10:44:45.249Z,33.5
2023-04-28T10:49:51.661Z,33.5
2023-04-28T10:54:58.146Z,33
2023-04-28T11:00:04.594Z,33
2023-04-28T11:05:11.620Z,33
2023-04-28T11:10:18.619Z,33.5
2023-04-28T11:15:25.621Z,34
2023-04-28T11:20:32.645Z,34
2023-04-28T11:25:38.603Z,33.5
2023-04-28T11:30:44.782Z,33.5
2023-04-28T11:35:51.134Z,33.5
2023-04-28T11:40:57.319Z,34
2023-04-28T11:46:03.757Z,34
2023-04-28T11:51:09.851Z,34
2023-04-28T11:56:16.277Z,34
2023-04-28T12:01:22.372Z,34.5
2023-04-28T12:06:28.640Z,34
2023-04-28T12:11:34.923Z,35
2023-04-28T12:16:41.252Z,35
2023-04-28T12:21:47.420Z,34.5
2023-04-28T12:26:53.696Z,34.5
2023-04-28T12:31:59.952Z,35.5
2023-04-28T12:37:06.229Z,35
2023-04-28T12:42:12.495Z,34.5
2023-04-28T12:47:18.751Z,34.5
2023-04-28T12:52:25.054Z,34.5
2023-04-28T12:57:31.357Z,34.5
2023-04-28T13:02:37.604Z,34.5
2023-04-28T13:07:43.815Z,35.5
2023-04-28T13:12:50.078Z,35.5
2023-04-28T13:17:56.393Z,35
2023-04-28T13:23:02.620Z,35
2023-04-28T13:28:08.940Z,35.5
2023-04-28T13:33:15.365Z,36
2023-04-28T13:38:21.816Z,36
2023-04-28T13:43:28.288Z,37
2023-04-28T13:48:34.782Z,37.5
2023-04-28T13:53:41.232Z,37.5
2023-04-28T13:58:47.689Z,37.5
2023-04-28T14:03:54.169Z,38
2023-04-28T14:09:00.652Z,39
2023-04-28T14:14:07.100Z,40.5
2023-04-28T14:19:13.642Z,41
2023-04-28T14:24:20.041Z,41
2023-04-28T14:29:26.521Z,41
2023-04-28T14:34:33.035Z,41
2023-04-28T14:39:40.013Z,41
2023-04-28T14:44:47.016Z,40
2023-04-28T14:49:54.038Z,39.5
2023-04-28T14:55:01.048Z,40.5
2023-04-28T15:00:08.019Z,42
2023-04-28T15:05:15.023Z,43.5
2023-04-28T15:10:22.090Z,44.5
2023-04-28T15:15:29.043Z,44.5
2023-04-28T15:20:36.054Z,45.5
2023-04-28T15:25:43.140Z,47
2023-04-28T15:30:50.058Z,48
2023-04-28T15:35:57.060Z,47.5
2023-04-28T15:41:04.059Z,47.5
2023-04-28T15:46:11.940Z,47
2023-04-28T15:51:19.741Z,46.5
2023-04-28T15:56:27.560Z,47.5
2023-04-28T16:01:35.387Z,48
2023-04-28T16:06:43.216Z,50
2023-04-28T16:11:51.057Z,51
2023-04-28T16:16:58.869Z,51.5
2023-04-28T16:22:06.704Z,50.5
2023-04-28T16:27:14.531Z,50.5
2023-04-28T16:32:22.365Z,50.5
2023-04-28T16:37:30.242Z,51
2023-04-28T16:42:38.017Z,50.5
2023-04-28T16:47:45.839Z,50
2023-04-28T16:53:15.232Z,50
2023-04-28T16:58:22.947Z,50
2023-04-28T17:03:30.786Z,50
2023-04-28T17:08:38.600Z,49.5
2023-04-28T17:13:46.433Z,49.5
2023-04-28T17:18:54.255Z,49.5
2023-04-28T17:24:02.126Z,49.5
2023-04-28T17:29:09.906Z,49.5
2023-04-28T17:34:17.747Z,49.5
2023-04-28T17:39:23.969Z,49.5
2023-04-28T17:44:29.072Z,50
2023-04-28T17:49:35.166Z,51
2023-04-28T17:54:41.256Z,51
2023-04-28T17:59:47.467Z,51.5
2023-04-28T18:04:53.429Z,51
2023-04-28T18:09:59.532Z,51
2023-04-28T18:15:05.606Z,51
2023-04-28T18:20:11.745Z,50.5
2023-04-28T18:25:17.789Z,50.5
2023-04-28T18:30:23.874Z,50.5
2023-04-28T18:35:30.112Z,50
2023-04-28T18:40:36.217Z,50
2023-04-28T18:45:42.181Z,50
2023-04-28T18:50:48.244Z,50
2023-04-28T18:55:54.346Z,49.5
2023-04-28T19:01:00.418Z,49.5
2023-04-28T19:06:06.513Z,49.5
2023-04-28T19:11:11.620Z,49.5
2023-04-28T19:16:17.701Z,49.5
2023-04-28T19:21:23.798Z,49
2023-04-28T19:26:29.871Z,49
2023-04-28T19:31:35.972Z,49
2023-04-28T19:36:42.076Z,49
2023-04-28T19:41:48.150Z,49
2023-04-28T19:46:54.235Z,49
2023-04-28T19:52:00.317Z,48.5
2023-04-28T19:57:06.414Z,48.5
2023-04-28T20:02:12.529Z,48.5
2023-04-28T20:07:18.601Z,48.5
2023-04-28T20:12:23.703Z,48.5
2023-04-28T20:17:29.799Z,48.5
2023-04-28T20:22:35.888Z,48.5
2023-04-28T20:27:42.033Z,48
2023-04-28T20:32:47.103Z,48
2023-04-28T20:37:53.181Z,48
2023-04-28T20:42:59.270Z,48
2023-04-28T20:48:05.362Z,48
2023-04-28T20:53:11.456Z,48
2023-04-28T20:58:17.544Z,48
2023-04-28T21:03:23.630Z,48
2023-04-28T21:08:29.725Z,47.5
2023-04-28T21:13:35.829Z,47.5
2023-04-28T21:18:41.902Z,47.5
2023-04-28T21:23:47.993Z,47.5
2023-04-28T21:28:54.075Z,47.5
2023-04-28T21:34:00.160Z,47.5
2023-04-28T21:39:06.245Z,47.5
2023-04-28T21:44:12.351Z,47.5
2023-04-28T21:49:18.431Z,47.5
2023-04-28T21:54:24.526Z,47.5
2023-04-28T21:59:30.610Z,47
2023-04-28T22:04:36.699Z,47
2023-04-28T22:09:42.781Z,47
2023-04-28T22:14:48.871Z,47
2023-04-28T22:19:54.995Z,47
2023-04-28T22:25:01.059Z,47
2023-04-28T22:30:07.148Z,47
2023-04-28T22:35:13.255Z,47
2023-04-28T22:40:19.386Z,47
2023-04-28T22:45:25.546Z,47
2023-04-28T22:50:31.688Z,47
2023-04-28T22:55:37.847Z,47
2023-04-28T23:00:43.994Z,46.5
2023-04-28T23:05:50.138Z,46.5
2023-04-28T23:10:56.312Z,46.5
2023-04-28T23:16:01.462Z,46.5
2023-04-28T23:21:07.562Z,46.5
2023-04-28T23:26:13.665Z,46.5
2023-04-28T23:31:19.735Z,46.5
2023-04-28T23:36:25.819Z,46.5
2023-04-28T23:41:31.907Z,46.5
2023-04-28T23:46:37.017Z,46.5
2023-04-28T23:51:43.104Z,46.5
2023-04-28T23:56:49.206Z,46.5
